Terminal Aerodrome Forecast
Issued by NWS Missoula, MT

Home | Current Version | Previous Version | Text Only | Print | Product List | Glossary On
Versions: 1 2 3 4 5 6 7 8 9 10 11 12 13 14 15 16
000
FTUS45 KMSO 301736
TAFMSO
TAF
KMSO 301736Z 3018/0118 27015G25KT P6SM VCSH BKN060
     FM010100 28010KT P6SM -SHRA BKN040
     FM010600 VRB04KT P6SM VCSH BKN060
     FM011200 VRB03KT P6SM BKN080=

USA.gov is the U.S. government's official web portal to all federal, state and local government web resources and services.